Time;durP1;ratioP1;P1;durP2;ratioP2;P2;SDS_P1;SDS_P2;PMS_P1;PMS_P2;Temp;Humidity;BMP_temperature;BMP_pressure;BME280_temperature;BME280_humidity;BME280_pressure;Samples;Min_cycle;Max_cycle;Signal;HPM_P1;HPM_P2
2021/04/29 00:01:22;;;;;;;16.47;10.73;;;;;;;;;;5023975;28;20446;-93
2021/04/29 00:03:48;;;;;;;16.70;11.97;;;;;;;;;;5018742;28;20470;-93
2021/04/29 00:06:15;;;;;;;13.77;11.73;;;;;;;;;;5020181;28;20459;-93
2021/04/29 00:08:41;;;;;;;18.57;12.20;;;;;;;;;;5019135;28;20877;-94
2021/04/29 00:11:08;;;;;;;16.03;11.43;;;;;;;;;;5021848;28;20513;-94
2021/04/29 00:13:34;;;;;;;21.40;13.57;;;;;;;;;;5020909;28;20511;-95
2021/04/29 00:16:00;;;;;;;17.70;13.37;;;;;;;;;;5024577;28;20451;-95
2021/04/29 00:18:27;;;;;;;20.07;15.37;;;;;;;;;;5024863;28;20481;-95
2021/04/29 00:20:55;;;;;;;17.00;12.50;;;;;;;;;;5033152;28;20450;-95
2021/04/29 00:23:21;;;;;;;23.07;15.07;;;;;;;;;;5021481;28;20469;-96
2021/04/29 00:25:47;;;;;;;17.00;11.73;;;;;;;;;;5023316;28;20445;-94
2021/04/29 00:28:13;;;;;;;14.47;11.03;;;;;;;;;;5019287;28;20527;-94
2021/04/29 00:30:39;;;;;;;21.63;11.53;;;;;;;;;;5019691;28;20450;-95
2021/04/29 00:33:05;;;;;;;18.63;10.93;;;;;;;;;;5020878;28;20449;-95
2021/04/29 00:35:32;;;;;;;14.70;11.10;;;;;;;;;;5018933;28;20475;-95
2021/04/29 00:37:58;;;;;;;14.37;10.70;;;;;;;;;;5021066;28;20500;-95
2021/04/29 00:40:24;;;;;;;16.87;10.90;;;;;;;;;;5018528;28;20459;-95
2021/04/29 00:42:50;;;;;;;13.80;9.70;;;;;;;;;;5021212;28;20457;-96
2021/04/29 00:45:16;;;;;;;15.10;10.77;;;;;;;;;;5018532;28;20460;-95
2021/04/29 00:47:42;;;;;;;14.97;9.77;;;;;;;;;;5022025;28;20462;-96
2021/04/29 00:50:10;;;;;;;12.93;9.60;;;;;;;;;;5020038;28;20459;-95
2021/04/29 00:52:37;;;;;;;16.13;12.40;;;;;;;;;;5022850;28;20448;-95
2021/04/29 00:55:03;;;;;;;19.20;11.03;;;;;;;;;;5028027;28;20462;-95
2021/04/29 00:57:29;;;;;;;16.53;9.90;;;;;;;;;;5027951;28;20489;-96
2021/04/29 00:59:56;;;;;;;16.43;11.10;;;;;;;;;;5018363;28;20457;-96
2021/04/29 01:02:23;;;;;;;18.97;11.40;;;;;;;;;;5021566;28;20545;-95
2021/04/29 01:04:51;;;;;;;10.93;9.53;;;;;;;;;;5020456;28;20466;-96
2021/04/29 01:07:18;;;;;;;12.40;9.53;;;;;;;;;;5022653;28;20461;-94
2021/04/29 01:09:47;;;;;;;19.17;11.70;;;;;;;;;;5022480;28;20445;-95
2021/04/29 01:12:18;;;;;;;19.67;11.60;;;;;;;;;;5021192;28;20451;-94
2021/04/29 01:14:44;;;;;;;20.73;12.60;;;;;;;;;;5022530;28;20531;-95
2021/04/29 01:17:11;;;;;;;17.03;12.67;;;;;;;;;;5019643;28;20460;-94
2021/04/29 01:19:40;;;;;;;16.40;11.23;;;;;;;;;;5022755;28;20454;-95
2021/04/29 01:22:07;;;;;;;25.50;16.40;;;;;;;;;;5025512;28;20458;-95
2021/04/29 01:24:36;;;;;;;19.77;12.63;;;;;;;;;;5030810;28;20447;-94
2021/04/29 01:27:02;;;;;;;21.03;14.60;;;;;;;;;;5019642;28;20463;-96
2021/04/29 01:29:30;;;;;;;16.83;10.67;;;;;;;;;;5024484;28;20517;-94
2021/04/29 01:31:56;;;;;;;22.27;13.10;;;;;;;;;;5028447;28;20442;-94
2021/04/29 01:34:23;;;;;;;22.47;13.77;;;;;;;;;;5013505;28;20465;-94
2021/04/29 01:36:50;;;;;;;15.00;11.37;;;;;;;;;;5018158;28;20485;-95
2021/04/29 01:39:17;;;;;;;18.60;12.60;;;;;;;;;;5021846;28;20486;-95
2021/04/29 01:41:45;;;;;;;20.13;12.90;;;;;;;;;;5018990;28;20463;-94
2021/04/29 01:44:12;;;;;;;19.73;11.93;;;;;;;;;;5013981;28;20579;-94
2021/04/29 01:46:39;;;;;;;17.73;13.03;;;;;;;;;;5019639;28;20471;-95
2021/04/29 01:49:05;;;;;;;17.80;13.47;;;;;;;;;;5022011;28;20455;-95
2021/04/29 01:51:32;;;;;;;14.80;11.43;;;;;;;;;;5019565;28;20463;-93
2021/04/29 01:54:00;;;;;;;16.93;11.27;;;;;;;;;;5021815;28;20449;-93
2021/04/29 01:56:26;;;;;;;14.87;11.10;;;;;;;;;;5021472;28;20496;-93
2021/04/29 01:58:52;;;;;;;17.77;11.33;;;;;;;;;;5021300;28;20495;-92
2021/04/29 02:01:19;;;;;;;16.00;11.60;;;;;;;;;;5025320;28;20443;-92
2021/04/29 02:03:45;;;;;;;20.37;13.33;;;;;;;;;;5022792;28;20464;-92
2021/04/29 02:06:11;;;;;;;16.77;12.37;;;;;;;;;;5029704;28;20444;-92
2021/04/29 02:08:37;;;;;;;14.90;11.90;;;;;;;;;;5025961;28;20467;-91
2021/04/29 02:11:03;;;;;;;16.77;11.87;;;;;;;;;;5023147;28;20460;-93
2021/04/29 02:13:32;;;;;;;16.20;11.77;;;;;;;;;;5021381;28;20459;-93
2021/04/29 02:16:01;;;;;;;15.80;11.17;;;;;;;;;;5025104;28;20515;-92
2021/04/29 02:18:29;;;;;;;18.57;11.90;;;;;;;;;;5021532;28;20497;-93
2021/04/29 02:20:56;;;;;;;19.50;11.97;;;;;;;;;;5024006;28;20452;-94
2021/04/29 02:23:24;;;;;;;18.50;11.80;;;;;;;;;;5021218;28;20460;-94
2021/04/29 02:25:52;;;;;;;20.27;12.50;;;;;;;;;;5023936;28;20448;-93
2021/04/29 02:28:18;;;;;;;16.37;11.83;;;;;;;;;;5022614;28;20464;-93
2021/04/29 02:30:44;;;;;;;16.50;11.83;;;;;;;;;;5024961;28;20449;-94
2021/04/29 02:33:11;;;;;;;16.97;12.70;;;;;;;;;;5020869;28;20468;-95
2021/04/29 02:35:38;;;;;;;19.43;11.63;;;;;;;;;;5022633;28;20475;-93
2021/04/29 02:38:04;;;;;;;13.80;10.40;;;;;;;;;;5021419;28;20475;-94
2021/04/29 02:40:30;;;;;;;11.30;10.10;;;;;;;;;;5023956;28;20456;-93
2021/04/29 02:42:56;;;;;;;19.90;11.73;;;;;;;;;;5036019;28;20448;-94
2021/04/29 02:45:22;;;;;;;16.60;11.67;;;;;;;;;;5026580;28;21765;-93
2021/04/29 02:47:49;;;;;;;16.47;11.63;;;;;;;;;;5023919;28;20495;-94
2021/04/29 02:50:16;;;;;;;15.80;11.87;;;;;;;;;;5020356;28;20491;-93
2021/04/29 02:52:45;;;;;;;19.37;12.47;;;;;;;;;;5023968;28;20515;-93
2021/04/29 02:55:11;;;;;;;20.17;14.70;;;;;;;;;;5021796;28;20460;-94
2021/04/29 02:57:37;;;;;;;27.93;17.00;;;;;;;;;;5023973;28;20490;-93
2021/04/29 03:00:04;;;;;;;30.80;19.23;;;;;;;;;;5022046;28;20459;-95
2021/04/29 03:02:30;;;;;;;25.07;17.80;;;;;;;;;;5024126;28;20535;-94
2021/04/29 03:04:56;;;;;;;20.97;15.17;;;;;;;;;;5021914;28;20471;-94
2021/04/29 03:07:22;;;;;;;19.93;14.73;;;;;;;;;;5023285;28;20467;-94
2021/04/29 03:09:49;;;;;;;20.17;14.33;;;;;;;;;;5019550;28;20464;-94
2021/04/29 03:12:16;;;;;;;19.77;14.47;;;;;;;;;;5023208;28;20444;-95
2021/04/29 03:14:42;;;;;;;22.00;13.57;;;;;;;;;;5021829;28;20456;-93
2021/04/29 03:17:08;;;;;;;16.17;11.80;;;;;;;;;;5020992;28;20447;-94
2021/04/29 03:19:34;;;;;;;20.30;13.33;;;;;;;;;;5035075;28;20495;-93
2021/04/29 03:22:00;;;;;;;15.00;12.03;;;;;;;;;;5022015;28;20483;-93
2021/04/29 03:24:26;;;;;;;25.70;16.43;;;;;;;;;;5023787;28;20490;-94
2021/04/29 03:26:53;;;;;;;21.80;15.97;;;;;;;;;;5021730;28;20460;-94
2021/04/29 03:29:19;;;;;;;23.10;17.77;;;;;;;;;;5023752;28;20461;-93
2021/04/29 03:31:45;;;;;;;21.37;14.67;;;;;;;;;;5020409;28;20468;-94
2021/04/29 03:34:11;;;;;;;25.30;14.00;;;;;;;;;;5023309;28;21135;-92
2021/04/29 03:36:37;;;;;;;23.97;16.10;;;;;;;;;;5020891;28;21286;-94
2021/04/29 03:39:04;;;;;;;21.50;14.33;;;;;;;;;;5023210;28;20487;-94
2021/04/29 03:41:31;;;;;;;18.80;15.33;;;;;;;;;;5021748;28;20455;-94
2021/04/29 03:43:57;;;;;;;18.77;14.10;;;;;;;;;;5022166;28;20518;-94
2021/04/29 03:46:23;;;;;;;25.17;16.80;;;;;;;;;;5019290;28;20457;-93
2021/04/29 03:48:49;;;;;;;25.27;18.60;;;;;;;;;;5022198;28;20460;-94
2021/04/29 03:51:15;;;;;;;25.20;19.20;;;;;;;;;;5019645;28;20462;-94
2021/04/29 03:53:41;;;;;;;32.00;20.07;;;;;;;;;;5030866;28;20478;-95
2021/04/29 03:56:07;;;;;;;31.33;20.13;;;;;;;;;;5033800;28;20474;-94
2021/04/29 03:58:33;;;;;;;27.20;19.53;;;;;;;;;;5019789;28;20503;-94
2021/04/29 04:01:00;;;;;;;25.57;18.53;;;;;;;;;;5022213;28;20942;-94
2021/04/29 04:03:26;;;;;;;24.67;18.53;;;;;;;;;;5020291;28;20463;-93
2021/04/29 04:05:52;;;;;;;26.70;17.53;;;;;;;;;;5023579;28;20444;-93
2021/04/29 04:08:18;;;;;;;22.30;16.90;;;;;;;;;;5020667;28;20935;-94
2021/04/29 04:10:44;;;;;;;23.07;17.57;;;;;;;;;;5023030;28;20450;-93
2021/04/29 04:13:15;;;;;;;27.43;18.27;;;;;;;;;;5020456;28;20497;-94
2021/04/29 04:15:41;;;;;;;24.87;17.37;;;;;;;;;;5022814;28;20447;-94
2021/04/29 04:18:08;;;;;;;26.97;19.33;;;;;;;;;;5020098;28;20508;-94
2021/04/29 04:20:34;;;;;;;29.93;21.20;;;;;;;;;;5021409;28;20488;-95
2021/04/29 04:23:03;;;;;;;25.70;18.03;;;;;;;;;;5019261;28;20878;-93
2021/04/29 04:25:29;;;;;;;29.00;19.07;;;;;;;;;;5022578;28;20445;-92
2021/04/29 04:27:55;;;;;;;38.10;19.33;;;;;;;;;;5019825;28;20554;-93
2021/04/29 04:30:21;;;;;;;41.57;20.37;;;;;;;;;;5028210;28;20506;-94
2021/04/29 04:32:47;;;;;;;63.77;22.97;;;;;;;;;;5024517;28;20482;-94
2021/04/29 04:35:14;;;;;;;35.93;22.10;;;;;;;;;;5022014;28;20497;-95
2021/04/29 04:37:40;;;;;;;34.87;19.60;;;;;;;;;;5022038;28;20486;-96
2021/04/29 04:40:07;;;;;;;30.30;17.27;;;;;;;;;;5019316;28;20454;-94
2021/04/29 04:42:33;;;;;;;29.67;17.40;;;;;;;;;;5022403;28;20458;-94
2021/04/29 04:44:59;;;;;;;30.70;19.13;;;;;;;;;;5019816;28;20470;-95
2021/04/29 04:47:26;;;;;;;46.20;19.33;;;;;;;;;;5022352;28;20456;-94
2021/04/29 04:49:52;;;;;;;30.30;18.43;;;;;;;;;;5019833;28;20478;-94
2021/04/29 04:52:18;;;;;;;20.00;15.00;;;;;;;;;;5024230;28;20461;-95
2021/04/29 04:54:47;;;;;;;21.67;15.00;;;;;;;;;;5023807;28;20456;-96
2021/04/29 04:57:16;;;;;;;19.20;13.97;;;;;;;;;;5023258;28;20482;-95
2021/04/29 04:59:42;;;;;;;27.63;17.13;;;;;;;;;;5022055;28;20520;-96
2021/04/29 05:02:08;;;;;;;22.47;15.17;;;;;;;;;;5008464;28;20456;-95
2021/04/29 05:07:22;;;;;;;30.07;19.73;;;;;;;;;;5031308;28;20463;-92
2021/04/29 05:09:57;;;;;;;30.93;19.47;;;;;;;;;;5027250;28;20451;-93
2021/04/29 05:12:23;;;;;;;31.10;20.27;;;;;;;;;;5026193;28;20451;-96
2021/04/29 05:14:49;;;;;;;32.23;18.67;;;;;;;;;;5024482;28;20497;-95
2021/04/29 05:17:15;;;;;;;34.47;21.27;;;;;;;;;;5027720;28;20436;-96
2021/04/29 05:19:42;;;;;;;39.47;22.60;;;;;;;;;;5024137;28;20553;-96
2021/04/29 05:25:01;;;;;;;47.77;24.70;;;;;;;;;;5032090;28;20450;-96
2021/04/29 05:27:28;;;;;;;39.03;22.97;;;;;;;;;;5031326;28;20447;-96
2021/04/29 05:29:55;;;;;;;44.23;23.77;;;;;;;;;;5031554;28;20479;-96
2021/04/29 05:32:22;;;;;;;45.70;24.13;;;;;;;;;;5032550;28;20497;-96
2021/04/29 05:34:52;;;;;;;48.20;25.20;;;;;;;;;;5016395;28;20471;-96
2021/04/29 05:40:17;;;;;;;47.20;27.63;;;;;;;;;;5035414;28;20462;-96
2021/04/29 05:42:50;;;;;;;56.77;27.33;;;;;;;;;;5035698;28;20458;-96
2021/04/29 05:45:19;;;;;;;50.60;27.77;;;;;;;;;;5035322;28;20481;-96
2021/04/29 05:47:47;;;;;;;46.70;28.13;;;;;;;;;;5035808;28;20439;-96
2021/04/29 05:53:03;;;;;;;47.70;27.40;;;;;;;;;;5035026;28;20470;-96
2021/04/29 05:55:55;;;;;;;49.33;27.83;;;;;;;;;;5029278;28;20444;-96
2021/04/29 05:58:24;;;;;;;57.67;34.23;;;;;;;;;;5031497;28;20504;-96
2021/04/29 06:00:50;;;;;;;51.67;30.93;;;;;;;;;;5034410;28;20468;-96
2021/04/29 06:03:17;;;;;;;56.67;32.30;;;;;;;;;;5031980;28;20474;-96
2021/04/29 06:05:43;;;;;;;52.00;30.60;;;;;;;;;;5032814;28;20454;-96
2021/04/29 06:10:53;;;;;;;39.20;23.37;;;;;;;;;;5031475;28;20463;-96
2021/04/29 06:13:19;;;;;;;28.87;17.70;;;;;;;;;;5026225;28;20468;-96
2021/04/29 06:15:46;;;;;;;29.87;18.20;;;;;;;;;;5029109;28;20462;-96
2021/04/29 06:18:13;;;;;;;34.50;22.43;;;;;;;;;;5028080;28;20522;-96
2021/04/29 06:20:40;;;;;;;38.80;25.27;;;;;;;;;;5037946;28;20487;-96
2021/04/29 06:23:06;;;;;;;35.70;24.00;;;;;;;;;;5037215;28;20448;-96
2021/04/29 06:25:48;;;;;;;47.43;24.10;;;;;;;;;;5038019;28;20430;-96
2021/04/29 06:28:18;;;;;;;39.77;23.40;;;;;;;;;;5015654;28;20464;-96
2021/04/29 06:30:46;;;;;;;45.43;24.57;;;;;;;;;;5039077;28;20444;-96
2021/04/29 06:38:58;;;;;;;33.83;22.83;;;;;;;;;;5041085;28;20909;-96
2021/04/29 06:41:24;;;;;;;35.10;23.50;;;;;;;;;;5028358;28;20535;-96
2021/04/29 06:43:51;;;;;;;35.60;25.07;;;;;;;;;;5023647;28;20454;-94
2021/04/29 06:49:47;;;;;;;37.20;26.33;;;;;;;;;;5023053;28;20436;-96
2021/04/29 06:52:18;;;;;;;45.50;28.60;;;;;;;;;;5032164;28;20979;-96
2021/04/29 06:54:44;;;;;;;45.03;29.80;;;;;;;;;;5023048;28;20464;-96
2021/04/29 06:59:38;;;;;;;45.00;30.80;;;;;;;;;;5146414;22;20539;-96
2021/04/29 07:02:04;;;;;;;41.27;30.27;;;;;;;;;;5100008;28;20459;-96
2021/04/29 07:04:30;;;;;;;48.87;32.57;;;;;;;;;;5082759;28;20457;-95
2021/04/29 07:06:56;;;;;;;52.27;37.07;;;;;;;;;;5096137;28;20440;-96
2021/04/29 07:17:05;;;;;;;54.47;35.50;;;;;;;;;;5093311;28;20469;-96
2021/04/29 07:22:24;;;;;;;52.73;38.17;;;;;;;;;;4998763;28;20442;-96
2021/04/29 07:24:54;;;;;;;57.40;42.73;;;;;;;;;;5094648;28;20445;-94
2021/04/29 07:27:22;;;;;;;48.93;37.20;;;;;;;;;;5089915;28;20520;-96
2021/04/29 07:35:46;;;;;;;47.37;35.90;;;;;;;;;;5275366;22;20648;-96
2021/04/29 07:38:13;;;;;;;75.77;49.97;;;;;;;;;;5099530;28;20465;-96
2021/04/29 07:43:51;;;;;;;45.93;35.30;;;;;;;;;;5114148;28;20399;-96
2021/04/29 07:46:18;;;;;;;51.37;32.30;;;;;;;;;;5119818;28;20436;-96
2021/04/29 07:48:44;;;;;;;39.40;30.43;;;;;;;;;;5119786;28;20439;-93
2021/04/29 07:51:12;;;;;;;43.60;29.90;;;;;;;;;;5115464;28;20472;-96
2021/04/29 07:54:15;;;;;;;47.73;32.77;;;;;;;;;;5116874;28;20575;-96
2021/04/29 07:56:43;;;;;;;40.20;28.97;;;;;;;;;;5085760;22;20482;-96
2021/04/29 07:59:10;;;;;;;45.63;29.53;;;;;;;;;;5046669;28;20497;-96
2021/04/29 08:01:36;;;;;;;47.80;33.33;;;;;;;;;;5054109;28;20463;-96
2021/04/29 08:04:02;;;;;;;46.80;33.10;;;;;;;;;;5044631;28;20462;-96
2021/04/29 08:06:42;;;;;;;46.23;31.27;;;;;;;;;;5047776;28;20446;-96
2021/04/29 08:11:53;;;;;;;39.53;29.87;;;;;;;;;;5424982;23;20474;-96
2021/04/29 08:17:27;;;;;;;39.70;29.10;;;;;;;;;;5028853;28;20521;-96
2021/04/29 08:19:54;;;;;;;36.00;25.47;;;;;;;;;;5067295;28;20498;-96
2021/04/29 08:25:02;;;;;;;29.80;24.37;;;;;;;;;;5093319;28;20452;-96
2021/04/29 08:27:30;;;;;;;30.13;23.53;;;;;;;;;;5104194;28;20449;-96
2021/04/29 08:29:56;;;;;;;66.93;56.00;;;;;;;;;;5102790;28;20464;-96
2021/04/29 08:32:22;;;;;;;30.70;19.77;;;;;;;;;;5107582;28;20452;-94
2021/04/29 08:34:49;;;;;;;25.47;20.83;;;;;;;;;;5106706;28;20464;-95
2021/04/29 08:43:30;;;;;;;25.20;19.83;;;;;;;;;;5109579;28;20446;-96
2021/04/29 08:45:56;;;;;;;30.63;18.70;;;;;;;;;;5105965;28;20472;-96
2021/04/29 08:48:24;;;;;;;26.43;19.23;;;;;;;;;;5108220;28;20475;-96
2021/04/29 08:50:50;;;;;;;30.53;19.60;;;;;;;;;;5108579;28;20425;-96
2021/04/29 08:56:08;;;;;;;20.53;16.07;;;;;;;;;;5113375;28;20446;-96
2021/04/29 08:58:35;;;;;;;51.00;42.27;;;;;;;;;;5104069;28;20481;-96
2021/04/29 09:01:06;;;;;;;20.80;16.03;;;;;;;;;;5109419;28;20449;-96
2021/04/29 09:03:33;;;;;;;23.93;16.70;;;;;;;;;;5102800;28;20458;-96
2021/04/29 09:05:59;;;;;;;19.97;17.07;;;;;;;;;;5102440;28;20453;-96
2021/04/29 09:08:29;;;;;;;31.57;22.63;;;;;;;;;;5101796;28;20474;-91
2021/04/29 09:11:05;;;;;;;20.37;14.10;;;;;;;;;;5102028;28;20510;-96
2021/04/29 09:13:31;;;;;;;18.83;14.40;;;;;;;;;;5104520;28;20450;-96
2021/04/29 09:16:04;;;;;;;17.00;13.40;;;;;;;;;;5107063;28;20440;-96
2021/04/29 09:18:33;;;;;;;16.50;13.27;;;;;;;;;;5142035;22;20486;-96
2021/04/29 09:24:05;;;;;;;20.97;15.93;;;;;;;;;;5013787;28;20453;-97
2021/04/29 09:26:32;;;;;;;18.63;15.80;;;;;;;;;;5008480;28;20429;-96
2021/04/29 09:29:05;;;;;;;15.00;11.77;;;;;;;;;;5067210;28;20503;-96
2021/04/29 09:31:37;;;;;;;16.00;12.27;;;;;;;;;;5066851;28;20445;-96
2021/04/29 09:34:03;;;;;;;16.17;13.50;;;;;;;;;;5058087;28;20466;-96
2021/04/29 09:36:30;;;;;;;17.40;12.53;;;;;;;;;;5064085;28;20808;-95
2021/04/29 09:44:48;;;;;;;17.50;13.03;;;;;;;;;;5085306;22;20479;-96
2021/04/29 09:50:24;;;;;;;18.10;13.63;;;;;;;;;;5916335;22;20494;-96
2021/04/29 09:52:59;;;;;;;19.77;13.60;;;;;;;;;;5085434;28;20445;-96
2021/04/29 09:55:33;;;;;;;16.00;12.80;;;;;;;;;;5100618;22;20485;-96
2021/04/29 09:58:10;;;;;;;13.50;11.93;;;;;;;;;;5073761;22;20484;-95
2021/04/29 10:03:18;;;;;;;15.47;11.30;;;;;;;;;;5049466;28;20516;-96
2021/04/29 10:08:50;;;;;;;16.50;10.37;;;;;;;;;;5073006;28;21065;-96
2021/04/29 10:11:20;;;;;;;18.57;11.50;;;;;;;;;;5063899;28;20466;-96
2021/04/29 10:13:47;;;;;;;16.77;9.93;;;;;;;;;;5065074;28;20454;-96
2021/04/29 10:16:13;;;;;;;11.63;9.80;;;;;;;;;;5065275;28;20489;-95
2021/04/29 10:18:44;;;;;;;12.10;9.60;;;;;;;;;;5062220;28;20478;-96
2021/04/29 10:21:15;;;;;;;16.87;9.80;;;;;;;;;;5068642;28;20430;-96
2021/04/29 10:26:26;;;;;;;12.20;8.10;;;;;;;;;;5072480;28;20500;-96
2021/04/29 10:28:58;;;;;;;11.70;7.87;;;;;;;;;;5052168;28;20508;-94
2021/04/29 10:33:51;;;;;;;9.93;7.60;;;;;;;;;;5128199;23;20556;-96
2021/04/29 10:36:17;;;;;;;10.23;6.70;;;;;;;;;;5072552;23;20494;-96
2021/04/29 10:38:43;;;;;;;9.47;5.80;;;;;;;;;;5060871;28;20500;-95
2021/04/29 10:41:17;;;;;;;17.10;6.17;;;;;;;;;;5063836;28;20461;-94
2021/04/29 10:43:44;;;;;;;9.43;5.27;;;;;;;;;;5060703;28;20453;-96
2021/04/29 10:49:12;;;;;;;12.63;4.70;;;;;;;;;;5075183;22;20497;-96
2021/04/29 10:51:55;;;;;;;7.87;4.40;;;;;;;;;;5073995;28;20540;-96
2021/04/29 10:54:25;;;;;;;14.43;3.97;;;;;;;;;;5094068;22;20502;-96
2021/04/29 10:57:02;;;;;;;10.60;3.60;;;;;;;;;;5110516;28;21244;-96
2021/04/29 10:59:42;;;;;;;9.70;4.20;;;;;;;;;;5106661;28;20483;-96
2021/04/29 11:02:25;;;;;;;8.03;3.67;;;;;;;;;;5108768;28;20436;-96
2021/04/29 11:04:52;;;;;;;10.97;3.83;;;;;;;;;;5106510;28;20464;-94
2021/04/29 11:07:21;;;;;;;6.97;3.93;;;;;;;;;;5107953;28;20484;-94
2021/04/29 11:09:57;;;;;;;10.73;4.13;;;;;;;;;;5102619;28;20533;-94
2021/04/29 11:12:44;;;;;;;6.97;3.70;;;;;;;;;;5088787;28;20439;-93
2021/04/29 11:15:21;;;;;;;8.50;3.50;;;;;;;;;;5104125;28;20512;-93
2021/04/29 11:18:01;;;;;;;7.63;3.53;;;;;;;;;;5099629;28;20455;-94
2021/04/29 11:20:27;;;;;;;9.63;3.40;;;;;;;;;;5106945;28;20453;-94
2021/04/29 11:22:55;;;;;;;11.03;3.83;;;;;;;;;;5110687;28;20432;-95
2021/04/29 11:25:21;;;;;;;10.60;3.87;;;;;;;;;;5206287;22;20442;-95
2021/04/29 11:27:54;;;;;;;6.87;3.80;;;;;;;;;;5063488;28;20512;-92
2021/04/29 11:30:27;;;;;;;7.13;3.80;;;;;;;;;;5065387;28;20458;-96
2021/04/29 11:32:55;;;;;;;6.13;3.83;;;;;;;;;;5064069;28;20450;-93
2021/04/29 11:35:21;;;;;;;5.53;3.33;;;;;;;;;;5066910;28;20458;-96
2021/04/29 11:37:49;;;;;;;7.57;3.30;;;;;;;;;;5062537;28;20450;-95
2021/04/29 11:40:17;;;;;;;8.43;3.50;;;;;;;;;;5064798;28;20490;-95
2021/04/29 11:42:48;;;;;;;10.87;4.97;;;;;;;;;;5068129;28;20454;-94
2021/04/29 11:45:17;;;;;;;7.90;4.07;;;;;;;;;;5070284;28;20479;-93
2021/04/29 11:47:56;;;;;;;5.37;3.50;;;;;;;;;;5069493;28;20454;-94
2021/04/29 11:50:25;;;;;;;10.07;4.23;;;;;;;;;;5066775;28;20449;-93
2021/04/29 11:53:09;;;;;;;6.17;3.90;;;;;;;;;;5066204;28;20441;-95
2021/04/29 11:55:36;;;;;;;8.10;4.00;;;;;;;;;;5062921;28;20488;-92
2021/04/29 11:58:03;;;;;;;9.00;3.80;;;;;;;;;;5065000;28;20468;-95
2021/04/29 12:00:33;;;;;;;5.83;2.83;;;;;;;;;;5066569;28;20441;-94
2021/04/29 12:03:02;;;;;;;6.13;3.20;;;;;;;;;;5115798;22;20510;-93
2021/04/29 12:05:32;;;;;;;5.73;4.30;;;;;;;;;;5104782;28;20444;-95
2021/04/29 12:08:10;;;;;;;7.30;3.50;;;;;;;;;;5101678;28;20467;-96
2021/04/29 12:10:57;;;;;;;8.47;3.53;;;;;;;;;;5106811;28;20444;-96
2021/04/29 12:13:34;;;;;;;7.67;4.00;;;;;;;;;;5089134;28;20518;-95
2021/04/29 12:16:01;;;;;;;9.37;3.53;;;;;;;;;;5104432;28;20428;-93
2021/04/29 12:18:30;;;;;;;7.40;4.07;;;;;;;;;;5105701;28;20479;-95
2021/04/29 12:20:57;;;;;;;7.93;3.40;;;;;;;;;;5088293;28;20603;-96
2021/04/29 12:23:29;;;;;;;6.97;3.67;;;;;;;;;;5109293;28;20515;-96
2021/04/29 12:25:56;;;;;;;6.77;4.10;;;;;;;;;;5109249;28;20508;-96
2021/04/29 12:28:22;;;;;;;7.23;3.30;;;;;;;;;;5098409;28;20459;-94
2021/04/29 12:30:48;;;;;;;11.30;3.83;;;;;;;;;;5104996;28;20463;-92
2021/04/29 12:33:16;;;;;;;5.30;3.10;;;;;;;;;;5102958;28;20502;-95
2021/04/29 12:35:44;;;;;;;5.80;3.10;;;;;;;;;;5103028;28;20440;-95
2021/04/29 12:38:11;;;;;;;9.63;3.97;;;;;;;;;;5092756;28;20476;-96
2021/04/29 12:40:40;;;;;;;4.13;2.73;;;;;;;;;;5103272;28;20452;-96
2021/04/29 12:43:25;;;;;;;8.50;3.40;;;;;;;;;;5100012;28;20508;-94
2021/04/29 12:45:52;;;;;;;10.20;3.57;;;;;;;;;;5098407;28;20440;-92
2021/04/29 12:48:25;;;;;;;8.00;3.27;;;;;;;;;;5093630;28;20486;-95
2021/04/29 12:51:02;;;;;;;8.00;3.13;;;;;;;;;;5094087;28;20456;-94
2021/04/29 12:53:28;;;;;;;6.53;3.50;;;;;;;;;;5096195;28;20436;-95
2021/04/29 12:55:55;;;;;;;5.63;3.17;;;;;;;;;;5095658;28;20455;-96
2021/04/29 12:58:25;;;;;;;8.27;3.50;;;;;;;;;;5096931;28;20448;-92
2021/04/29 13:00:53;;;;;;;6.10;3.90;;;;;;;;;;5100396;28;20806;-93
2021/04/29 13:03:19;;;;;;;9.20;4.00;;;;;;;;;;5102781;28;20508;-91
2021/04/29 13:05:47;;;;;;;8.37;3.60;;;;;;;;;;5101506;28;20457;-95
2021/04/29 13:08:14;;;;;;;7.07;3.73;;;;;;;;;;5105046;28;20448;-93
2021/04/29 13:10:41;;;;;;;5.80;3.87;;;;;;;;;;5101192;28;20460;-95
2021/04/29 13:13:07;;;;;;;9.37;3.50;;;;;;;;;;5104416;28;20436;-95
2021/04/29 13:15:34;;;;;;;8.50;3.43;;;;;;;;;;5100560;28;20452;-94
2021/04/29 13:18:00;;;;;;;4.13;3.37;;;;;;;;;;5103279;28;20491;-94
2021/04/29 13:20:29;;;;;;;6.90;3.83;;;;;;;;;;5102237;28;20484;-95
2021/04/29 13:22:56;;;;;;;8.60;4.23;;;;;;;;;;5104520;28;20470;-96
2021/04/29 13:25:24;;;;;;;6.93;3.70;;;;;;;;;;5102308;28;20464;-94
2021/04/29 13:27:51;;;;;;;5.90;3.43;;;;;;;;;;5103024;28;20448;-95
2021/04/29 13:30:18;;;;;;;8.27;3.60;;;;;;;;;;5101851;28;23649;-94
2021/04/29 13:32:46;;;;;;;5.73;3.77;;;;;;;;;;5103281;28;20448;-95
2021/04/29 13:35:13;;;;;;;6.83;3.50;;;;;;;;;;5102747;28;20502;-93
2021/04/29 13:37:39;;;;;;;8.03;3.90;;;;;;;;;;5099447;28;21199;-96
2021/04/29 13:40:06;;;;;;;6.77;3.57;;;;;;;;;;5093491;28;20491;-93
2021/04/29 13:42:34;;;;;;;8.80;3.93;;;;;;;;;;5096301;28;20498;-91
2021/04/29 13:45:00;;;;;;;7.10;3.80;;;;;;;;;;5099818;28;20452;-92
2021/04/29 13:47:30;;;;;;;6.10;3.47;;;;;;;;;;5099425;28;20452;-95
2021/04/29 13:49:56;;;;;;;8.43;3.60;;;;;;;;;;5102232;28;20927;-96
2021/04/29 13:52:23;;;;;;;6.73;3.90;;;;;;;;;;5098421;28;20482;-93
2021/04/29 13:54:49;;;;;;;3.80;3.40;;;;;;;;;;5104432;28;20451;-94
2021/04/29 13:57:15;;;;;;;6.20;4.00;;;;;;;;;;5102590;28;20448;-93
2021/04/29 13:59:43;;;;;;;7.67;4.10;;;;;;;;;;5102808;28;20491;-93
2021/04/29 14:02:09;;;;;;;8.87;4.50;;;;;;;;;;5091359;28;20479;-93
2021/04/29 14:04:35;;;;;;;10.13;3.90;;;;;;;;;;5105850;28;20456;-93
2021/04/29 14:07:01;;;;;;;5.93;3.83;;;;;;;;;;5102595;28;20460;-93
2021/04/29 14:09:27;;;;;;;6.80;3.63;;;;;;;;;;5105637;28;20440;-92
2021/04/29 14:11:53;;;;;;;4.97;3.60;;;;;;;;;;5101602;28;20453;-92
2021/04/29 14:14:19;;;;;;;8.33;3.80;;;;;;;;;;5101583;28;20467;-93
2021/04/29 14:16:46;;;;;;;8.37;3.90;;;;;;;;;;5103649;28;20456;-93
2021/04/29 14:19:15;;;;;;;3.83;3.40;;;;;;;;;;5103934;28;20495;-93
2021/04/29 14:21:41;;;;;;;11.10;4.00;;;;;;;;;;5100920;28;20550;-93
2021/04/29 14:24:08;;;;;;;4.07;3.67;;;;;;;;;;5101700;28;20458;-92
2021/04/29 14:26:34;;;;;;;9.30;3.73;;;;;;;;;;5103107;28;20883;-96
2021/04/29 14:29:00;;;;;;;6.17;3.13;;;;;;;;;;5101777;28;20509;-93
2021/04/29 14:31:26;;;;;;;10.30;4.30;;;;;;;;;;5105207;28;20448;-93
2021/04/29 14:33:53;;;;;;;6.77;4.07;;;;;;;;;;5103118;28;20448;-96
2021/04/29 14:36:19;;;;;;;11.40;4.23;;;;;;;;;;5104642;28;20450;-94
2021/04/29 14:38:45;;;;;;;7.97;4.00;;;;;;;;;;5108306;28;20484;-93
2021/04/29 14:41:11;;;;;;;6.20;3.77;;;;;;;;;;5104945;28;20539;-93
2021/04/29 14:43:37;;;;;;;9.20;3.50;;;;;;;;;;5102387;28;20871;-96
2021/04/29 14:46:03;;;;;;;8.87;3.23;;;;;;;;;;5106421;28;20850;-95
2021/04/29 14:48:29;;;;;;;9.70;3.73;;;;;;;;;;5102076;28;20456;-92
2021/04/29 14:50:59;;;;;;;6.10;3.30;;;;;;;;;;5107047;28;20449;-96
2021/04/29 14:53:31;;;;;;;7.37;3.40;;;;;;;;;;5105223;28;20456;-96
2021/04/29 14:55:57;;;;;;;4.90;2.70;;;;;;;;;;5103880;28;20448;-94
2021/04/29 14:58:23;;;;;;;5.40;2.90;;;;;;;;;;5102554;28;20449;-93
2021/04/29 15:00:49;;;;;;;10.40;3.33;;;;;;;;;;5103249;28;20467;-93
2021/04/29 15:03:17;;;;;;;10.77;3.90;;;;;;;;;;5104163;28;20484;-96
2021/04/29 15:05:43;;;;;;;14.63;4.63;;;;;;;;;;5109634;28;20460;-94
2021/04/29 15:08:12;;;;;;;6.50;3.63;;;;;;;;;;5108308;28;20447;-95
2021/04/29 15:10:38;;;;;;;6.93;3.03;;;;;;;;;;5104305;28;20452;-95
2021/04/29 15:13:04;;;;;;;6.00;3.57;;;;;;;;;;5101884;28;20463;-94
2021/04/29 15:15:31;;;;;;;9.90;3.60;;;;;;;;;;5106882;28;20490;-96
2021/04/29 15:17:57;;;;;;;9.13;3.73;;;;;;;;;;5082008;28;20460;-92
2021/04/29 15:20:23;;;;;;;5.67;3.70;;;;;;;;;;5107433;28;20500;-96
2021/04/29 15:22:49;;;;;;;5.07;3.27;;;;;;;;;;5101975;28;20521;-93
2021/04/29 15:25:17;;;;;;;9.30;3.83;;;;;;;;;;5094867;28;20448;-94
2021/04/29 15:27:44;;;;;;;7.47;4.00;;;;;;;;;;5094893;28;20548;-94
2021/04/29 15:30:12;;;;;;;7.60;3.97;;;;;;;;;;5098659;28;20491;-93
2021/04/29 15:32:39;;;;;;;5.13;3.70;;;;;;;;;;5102143;28;20452;-95
2021/04/29 15:35:06;;;;;;;7.20;3.80;;;;;;;;;;5095692;28;20455;-94
2021/04/29 15:37:32;;;;;;;6.43;3.57;;;;;;;;;;5102188;28;20524;-94
2021/04/29 15:39:58;;;;;;;8.33;3.93;;;;;;;;;;5098926;28;20491;-96
2021/04/29 15:42:25;;;;;;;7.10;3.60;;;;;;;;;;5101772;28;20459;-95
2021/04/29 15:44:51;;;;;;;8.00;4.07;;;;;;;;;;5105091;28;20470;-95
2021/04/29 15:47:18;;;;;;;5.47;3.80;;;;;;;;;;5099972;28;20452;-95
2021/04/29 15:49:44;;;;;;;7.73;3.93;;;;;;;;;;5100878;28;20452;-93
2021/04/29 15:52:10;;;;;;;8.63;3.97;;;;;;;;;;5099171;28;20456;-95
2021/04/29 15:54:36;;;;;;;9.87;4.17;;;;;;;;;;5106971;28;20486;-95
2021/04/29 15:57:03;;;;;;;6.43;3.73;;;;;;;;;;5105283;28;20447;-94
2021/04/29 15:59:29;;;;;;;12.20;4.00;;;;;;;;;;5104218;28;20494;-95